sensor_id;sensor_type;location;lat;lon;timestamp;temperature;humidity
20759;DHT22;10539;53.686;9.158;2022-12-10T00:01:50;2.10;99.90
20759;DHT22;10539;53.686;9.158;2022-12-10T00:04:16;2.10;99.90
20759;DHT22;10539;53.686;9.158;2022-12-10T00:06:42;2.10;99.90
20759;DHT22;10539;53.686;9.158;2022-12-10T00:09:13;2.10;99.90
20759;DHT22;10539;53.686;9.158;2022-12-10T00:11:39;2.00;99.90
20759;DHT22;10539;53.686;9.158;2022-12-10T00:14:05;2.00;99.90
20759;DHT22;10539;53.686;9.158;2022-12-10T00:16:35;2.10;99.90
20759;DHT22;10539;53.686;9.158;2022-12-10T00:19:01;2.10;99.90
20759;DHT22;10539;53.686;9.158;2022-12-10T00:21:29;2.10;99.90
20759;DHT22;10539;53.686;9.158;2022-12-10T00:23:55;2.10;99.90
20759;DHT22;10539;53.686;9.158;2022-12-10T00:26:30;2.10;99.90
20759;DHT22;10539;53.686;9.158;2022-12-10T00:28:57;2.00;99.90
20759;DHT22;10539;53.686;9.158;2022-12-10T00:31:29;2.00;99.90
20759;DHT22;10539;53.686;9.158;2022-12-10T00:33:57;2.00;99.90
20759;DHT22;10539;53.686;9.158;2022-12-10T00:36:26;1.90;99.90
20759;DHT22;10539;53.686;9.158;2022-12-10T00:38:53;2.00;99.90
20759;DHT22;10539;53.686;9.158;2022-12-10T00:41:19;1.90;99.90
20759;DHT22;10539;53.686;9.158;2022-12-10T00:43:45;1.90;99.90
20759;DHT22;10539;53.686;9.158;2022-12-10T00:46:12;2.00;99.90
20759;DHT22;10539;53.686;9.158;2022-12-10T00:48:39;1.90;99.90
20759;DHT22;10539;53.686;9.158;2022-12-10T00:51:13;1.90;99.90
20759;DHT22;10539;53.686;9.158;2022-12-10T00:53:40;1.90;99.90
20759;DHT22;10539;53.686;9.158;2022-12-10T00:56:08;1.90;99.90
20759;DHT22;10539;53.686;9.158;2022-12-10T00:58:36;2.00;99.90
20759;DHT22;10539;53.686;9.158;2022-12-10T01:01:10;2.00;99.90
20759;DHT22;10539;53.686;9.158;2022-12-10T01:03:36;2.00;99.90
20759;DHT22;10539;53.686;9.158;2022-12-10T01:08:40;2.00;99.90
20759;DHT22;10539;53.686;9.158;2022-12-10T01:11:07;2.00;99.90
20759;DHT22;10539;53.686;9.158;2022-12-10T01:13:33;2.00;99.90
20759;DHT22;10539;53.686;9.158;2022-12-10T01:16:05;2.10;99.90
20759;DHT22;10539;53.686;9.158;2022-12-10T01:18:31;2.10;99.90
20759;DHT22;10539;53.686;9.158;2022-12-10T01:21:04;2.10;99.90
20759;DHT22;10539;53.686;9.158;2022-12-10T01:23:36;2.20;99.90
20759;DHT22;10539;53.686;9.158;2022-12-10T01:26:07;2.20;99.90
20759;DHT22;10539;53.686;9.158;2022-12-10T01:28:36;2.30;99.90
20759;DHT22;10539;53.686;9.158;2022-12-10T01:31:05;2.30;99.90
20759;DHT22;10539;53.686;9.158;2022-12-10T01:33:31;2.30;99.90
20759;DHT22;10539;53.686;9.158;2022-12-10T01:36:12;2.30;99.90
20759;DHT22;10539;53.686;9.158;2022-12-10T01:38:38;2.30;99.90
20759;DHT22;10539;53.686;9.158;2022-12-10T01:41:05;2.30;99.90
20759;DHT22;10539;53.686;9.158;2022-12-10T01:44:57;2.30;99.90
20759;DHT22;10539;53.686;9.158;2022-12-10T01:46:56;2.30;99.90
20759;DHT22;10539;53.686;9.158;2022-12-10T01:49:31;2.30;99.90
20759;DHT22;10539;53.686;9.158;2022-12-10T01:51:58;2.20;99.90
20759;DHT22;10539;53.686;9.158;2022-12-10T01:54:32;2.20;99.90
20759;DHT22;10539;53.686;9.158;2022-12-10T01:57:01;2.20;99.90
20759;DHT22;10539;53.686;9.158;2022-12-10T01:59:28;2.20;99.90
20759;DHT22;10539;53.686;9.158;2022-12-10T02:01:58;2.10;99.90
20759;DHT22;10539;53.686;9.158;2022-12-10T02:07:27;2.10;99.90
20759;DHT22;10539;53.686;9.158;2022-12-10T02:09:58;2.10;99.90
20759;DHT22;10539;53.686;9.158;2022-12-10T02:15:00;2.20;99.90
20759;DHT22;10539;53.686;9.158;2022-12-10T02:17:46;2.10;99.90
20759;DHT22;10539;53.686;9.158;2022-12-10T02:20:18;2.20;99.90
20759;DHT22;10539;53.686;9.158;2022-12-10T02:23:04;2.20;99.90
20759;DHT22;10539;53.686;9.158;2022-12-10T02:25:48;2.20;99.90
20759;DHT22;10539;53.686;9.158;2022-12-10T02:28:32;2.20;99.90
20759;DHT22;10539;53.686;9.158;2022-12-10T02:31:00;2.10;99.90
20759;DHT22;10539;53.686;9.158;2022-12-10T02:33:27;2.10;99.90
20759;DHT22;10539;53.686;9.158;2022-12-10T02:35:55;2.10;99.90
20759;DHT22;10539;53.686;9.158;2022-12-10T02:38:29;2.00;99.90
20759;DHT22;10539;53.686;9.158;2022-12-10T02:41:05;2.00;99.90
20759;DHT22;10539;53.686;9.158;2022-12-10T02:43:33;2.00;99.90
20759;DHT22;10539;53.686;9.158;2022-12-10T02:46:02;1.90;99.90
20759;DHT22;10539;53.686;9.158;2022-12-10T02:48:30;1.90;99.90
20759;DHT22;10539;53.686;9.158;2022-12-10T02:50:56;1.90;99.90
20759;DHT22;10539;53.686;9.158;2022-12-10T02:53:22;1.90;99.90
20759;DHT22;10539;53.686;9.158;2022-12-10T02:56:11;1.80;99.90
20759;DHT22;10539;53.686;9.158;2022-12-10T03:01:54;1.80;99.90
20759;DHT22;10539;53.686;9.158;2022-12-10T03:07:21;1.80;99.90
20759;DHT22;10539;53.686;9.158;2022-12-10T03:09:53;1.70;99.90
20759;DHT22;10539;53.686;9.158;2022-12-10T03:12:27;1.70;99.90
20759;DHT22;10539;53.686;9.158;2022-12-10T03:14:58;1.70;99.90
20759;DHT22;10539;53.686;9.158;2022-12-10T03:17:26;1.70;99.90
20759;DHT22;10539;53.686;9.158;2022-12-10T03:19:55;1.70;99.90
20759;DHT22;10539;53.686;9.158;2022-12-10T03:22:22;1.80;99.90
20759;DHT22;10539;53.686;9.158;2022-12-10T03:24:48;1.80;99.90
20759;DHT22;10539;53.686;9.158;2022-12-10T03:27:17;1.80;99.90
20759;DHT22;10539;53.686;9.158;2022-12-10T03:29:50;1.90;99.90
20759;DHT22;10539;53.686;9.158;2022-12-10T03:32:17;1.90;99.90
20759;DHT22;10539;53.686;9.158;2022-12-10T03:34:44;1.90;99.90
20759;DHT22;10539;53.686;9.158;2022-12-10T03:37:11;1.90;99.90
20759;DHT22;10539;53.686;9.158;2022-12-10T03:39:38;1.90;99.90
20759;DHT22;10539;53.686;9.158;2022-12-10T03:42:05;1.90;99.90
20759;DHT22;10539;53.686;9.158;2022-12-10T03:44:35;2.00;99.90
20759;DHT22;10539;53.686;9.158;2022-12-10T03:47:03;2.00;99.90
20759;DHT22;10539;53.686;9.158;2022-12-10T03:49:29;2.00;99.90
20759;DHT22;10539;53.686;9.158;2022-12-10T03:51:55;2.00;99.90
20759;DHT22;10539;53.686;9.158;2022-12-10T03:54:21;2.00;99.90
20759;DHT22;10539;53.686;9.158;2022-12-10T03:56:48;2.00;99.90
20759;DHT22;10539;53.686;9.158;2022-12-10T03:59:14;2.00;99.90
20759;DHT22;10539;53.686;9.158;2022-12-10T04:01:41;2.00;99.90
20759;DHT22;10539;53.686;9.158;2022-12-10T04:04:08;2.00;99.90
20759;DHT22;10539;53.686;9.158;2022-12-10T04:06:34;2.00;99.90
20759;DHT22;10539;53.686;9.158;2022-12-10T04:09:00;2.00;99.90
20759;DHT22;10539;53.686;9.158;2022-12-10T04:11:26;2.10;99.90
20759;DHT22;10539;53.686;9.158;2022-12-10T04:13:52;2.10;99.90
20759;DHT22;10539;53.686;9.158;2022-12-10T04:16:36;2.10;99.90
20759;DHT22;10539;53.686;9.158;2022-12-10T04:19:11;2.10;99.90
20759;DHT22;10539;53.686;9.158;2022-12-10T04:21:38;2.10;99.90
20759;DHT22;10539;53.686;9.158;2022-12-10T04:24:25;2.10;99.90
20759;DHT22;10539;53.686;9.158;2022-12-10T04:27:17;2.10;99.90
20759;DHT22;10539;53.686;9.158;2022-12-10T04:29:44;2.10;99.90
20759;DHT22;10539;53.686;9.158;2022-12-10T04:32:10;2.10;99.90
20759;DHT22;10539;53.686;9.158;2022-12-10T04:34:36;2.10;99.90
20759;DHT22;10539;53.686;9.158;2022-12-10T04:37:03;2.10;99.90
20759;DHT22;10539;53.686;9.158;2022-12-10T04:39:29;2.10;99.90
20759;DHT22;10539;53.686;9.158;2022-12-10T04:41:55;2.10;99.90
20759;DHT22;10539;53.686;9.158;2022-12-10T04:44:21;2.10;99.90
20759;DHT22;10539;53.686;9.158;2022-12-10T04:46:47;2.00;99.90
20759;DHT22;10539;53.686;9.158;2022-12-10T04:49:14;1.90;99.90
20759;DHT22;10539;53.686;9.158;2022-12-10T04:51:40;1.90;99.90
20759;DHT22;10539;53.686;9.158;2022-12-10T04:54:06;2.00;99.90
20759;DHT22;10539;53.686;9.158;2022-12-10T04:56:33;2.10;99.90
20759;DHT22;10539;53.686;9.158;2022-12-10T04:58:59;2.10;99.90
20759;DHT22;10539;53.686;9.158;2022-12-10T05:01:25;2.10;99.90
20759;DHT22;10539;53.686;9.158;2022-12-10T05:03:52;2.10;99.90
20759;DHT22;10539;53.686;9.158;2022-12-10T05:06:19;2.10;99.90
20759;DHT22;10539;53.686;9.158;2022-12-10T05:08:45;2.10;99.90
20759;DHT22;10539;53.686;9.158;2022-12-10T05:11:16;2.10;99.90
20759;DHT22;10539;53.686;9.158;2022-12-10T05:13:42;2.10;99.90
20759;DHT22;10539;53.686;9.158;2022-12-10T05:16:11;2.10;99.90
20759;DHT22;10539;53.686;9.158;2022-12-10T05:18:36;2.10;99.90
20759;DHT22;10539;53.686;9.158;2022-12-10T05:21:05;2.10;99.90
20759;DHT22;10539;53.686;9.158;2022-12-10T05:23:32;2.00;99.90
20759;DHT22;10539;53.686;9.158;2022-12-10T05:26:02;2.00;99.90
20759;DHT22;10539;53.686;9.158;2022-12-10T05:28:31;1.90;99.90
20759;DHT22;10539;53.686;9.158;2022-12-10T05:30:58;1.90;99.90
20759;DHT22;10539;53.686;9.158;2022-12-10T05:33:24;1.90;99.90
20759;DHT22;10539;53.686;9.158;2022-12-10T05:35:54;1.90;99.90
20759;DHT22;10539;53.686;9.158;2022-12-10T05:38:20;1.80;99.90
20759;DHT22;10539;53.686;9.158;2022-12-10T05:40:46;1.70;99.90
20759;DHT22;10539;53.686;9.158;2022-12-10T05:43:12;1.70;99.90
20759;DHT22;10539;53.686;9.158;2022-12-10T05:45:38;1.70;99.90
20759;DHT22;10539;53.686;9.158;2022-12-10T05:48:04;1.80;99.90
20759;DHT22;10539;53.686;9.158;2022-12-10T05:50:31;1.80;99.90
20759;DHT22;10539;53.686;9.158;2022-12-10T05:52:57;1.80;99.90
20759;DHT22;10539;53.686;9.158;2022-12-10T05:55:23;1.80;99.90
20759;DHT22;10539;53.686;9.158;2022-12-10T05:57:49;1.80;99.90
20759;DHT22;10539;53.686;9.158;2022-12-10T06:00:15;1.70;99.90
20759;DHT22;10539;53.686;9.158;2022-12-10T06:02:40;1.70;99.90
20759;DHT22;10539;53.686;9.158;2022-12-10T06:05:06;1.70;99.90
20759;DHT22;10539;53.686;9.158;2022-12-10T06:07:32;1.60;99.90
20759;DHT22;10539;53.686;9.158;2022-12-10T06:10:01;1.60;99.90
20759;DHT22;10539;53.686;9.158;2022-12-10T06:12:26;1.60;99.90
20759;DHT22;10539;53.686;9.158;2022-12-10T06:14:52;1.60;99.90
20759;DHT22;10539;53.686;9.158;2022-12-10T06:17:18;1.60;99.90
20759;DHT22;10539;53.686;9.158;2022-12-10T06:19:43;1.70;99.90
20759;DHT22;10539;53.686;9.158;2022-12-10T06:22:10;1.70;99.90
20759;DHT22;10539;53.686;9.158;2022-12-10T06:24:36;1.70;99.90
20759;DHT22;10539;53.686;9.158;2022-12-10T06:27:01;1.80;99.90
20759;DHT22;10539;53.686;9.158;2022-12-10T06:29:27;1.80;99.90
20759;DHT22;10539;53.686;9.158;2022-12-10T06:31:53;1.80;99.90
20759;DHT22;10539;53.686;9.158;2022-12-10T06:34:18;1.80;99.90
20759;DHT22;10539;53.686;9.158;2022-12-10T06:36:44;1.90;99.90
20759;DHT22;10539;53.686;9.158;2022-12-10T06:39:10;1.90;99.90
20759;DHT22;10539;53.686;9.158;2022-12-10T06:41:36;1.90;99.90
20759;DHT22;10539;53.686;9.158;2022-12-10T06:44:01;1.90;99.90
20759;DHT22;10539;53.686;9.158;2022-12-10T06:46:27;1.90;99.90
20759;DHT22;10539;53.686;9.158;2022-12-10T06:48:54;1.90;99.90
20759;DHT22;10539;53.686;9.158;2022-12-10T06:51:20;1.90;99.90
20759;DHT22;10539;53.686;9.158;2022-12-10T06:53:46;1.90;99.90
20759;DHT22;10539;53.686;9.158;2022-12-10T06:56:16;1.90;99.90
20759;DHT22;10539;53.686;9.158;2022-12-10T06:58:43;1.80;99.90
20759;DHT22;10539;53.686;9.158;2022-12-10T07:01:13;1.90;99.90
20759;DHT22;10539;53.686;9.158;2022-12-10T07:03:39;1.90;99.90
20759;DHT22;10539;53.686;9.158;2022-12-10T07:06:07;1.90;99.90
20759;DHT22;10539;53.686;9.158;2022-12-10T07:08:33;1.90;99.90
20759;DHT22;10539;53.686;9.158;2022-12-10T07:10:58;1.90;99.90
20759;DHT22;10539;53.686;9.158;2022-12-10T07:13:25;2.00;99.90
20759;DHT22;10539;53.686;9.158;2022-12-10T07:15:50;1.90;99.90
20759;DHT22;10539;53.686;9.158;2022-12-10T07:18:16;1.90;99.90
20759;DHT22;10539;53.686;9.158;2022-12-10T07:20:42;1.90;99.90
20759;DHT22;10539;53.686;9.158;2022-12-10T07:23:07;2.00;99.90
20759;DHT22;10539;53.686;9.158;2022-12-10T07:25:33;2.00;99.90
20759;DHT22;10539;53.686;9.158;2022-12-10T07:27:59;2.00;99.90
20759;DHT22;10539;53.686;9.158;2022-12-10T07:30:24;2.00;99.90
20759;DHT22;10539;53.686;9.158;2022-12-10T07:32:50;2.00;99.90
20759;DHT22;10539;53.686;9.158;2022-12-10T07:35:16;2.00;99.90
20759;DHT22;10539;53.686;9.158;2022-12-10T07:37:51;1.90;99.90
20759;DHT22;10539;53.686;9.158;2022-12-10T07:40:17;1.90;99.90
20759;DHT22;10539;53.686;9.158;2022-12-10T07:42:43;1.90;99.90
20759;DHT22;10539;53.686;9.158;2022-12-10T07:45:12;1.90;99.90
20759;DHT22;10539;53.686;9.158;2022-12-10T07:47:38;2.00;99.90
20759;DHT22;10539;53.686;9.158;2022-12-10T07:50:05;2.00;99.90
20759;DHT22;10539;53.686;9.158;2022-12-10T07:52:31;2.10;99.90
20759;DHT22;10539;53.686;9.158;2022-12-10T07:54:56;2.10;99.90
20759;DHT22;10539;53.686;9.158;2022-12-10T07:57:28;2.10;99.90
20759;DHT22;10539;53.686;9.158;2022-12-10T07:59:58;2.10;99.90
20759;DHT22;10539;53.686;9.158;2022-12-10T08:02:24;2.10;99.90
20759;DHT22;10539;53.686;9.158;2022-12-10T08:04:56;2.10;99.90
20759;DHT22;10539;53.686;9.158;2022-12-10T08:07:21;2.10;99.90
20759;DHT22;10539;53.686;9.158;2022-12-10T08:09:50;2.00;99.90
20759;DHT22;10539;53.686;9.158;2022-12-10T08:12:16;2.00;99.90
20759;DHT22;10539;53.686;9.158;2022-12-10T08:14:42;2.00;99.90
20759;DHT22;10539;53.686;9.158;2022-12-10T08:17:08;2.00;99.90
20759;DHT22;10539;53.686;9.158;2022-12-10T08:19:33;2.00;99.90
20759;DHT22;10539;53.686;9.158;2022-12-10T08:21:59;2.00;99.90
20759;DHT22;10539;53.686;9.158;2022-12-10T08:24:25;2.00;99.90
20759;DHT22;10539;53.686;9.158;2022-12-10T08:26:54;2.00;99.90
20759;DHT22;10539;53.686;9.158;2022-12-10T08:29:19;2.00;99.90
20759;DHT22;10539;53.686;9.158;2022-12-10T08:31:46;2.00;99.90
20759;DHT22;10539;53.686;9.158;2022-12-10T08:34:15;2.10;99.90
20759;DHT22;10539;53.686;9.158;2022-12-10T08:36:50;2.10;99.90
20759;DHT22;10539;53.686;9.158;2022-12-10T08:39:16;2.10;99.90
20759;DHT22;10539;53.686;9.158;2022-12-10T08:41:46;2.10;99.90
20759;DHT22;10539;53.686;9.158;2022-12-10T08:44:15;2.20;99.90
20759;DHT22;10539;53.686;9.158;2022-12-10T08:46:41;2.20;99.90
20759;DHT22;10539;53.686;9.158;2022-12-10T08:49:07;2.20;99.90
20759;DHT22;10539;53.686;9.158;2022-12-10T08:51:32;2.20;99.90
20759;DHT22;10539;53.686;9.158;2022-12-10T08:53:58;2.20;99.90
20759;DHT22;10539;53.686;9.158;2022-12-10T08:56:24;2.20;99.90
20759;DHT22;10539;53.686;9.158;2022-12-10T08:58:50;2.20;99.90
20759;DHT22;10539;53.686;9.158;2022-12-10T09:01:18;2.20;99.90
20759;DHT22;10539;53.686;9.158;2022-12-10T09:03:44;2.20;99.90
20759;DHT22;10539;53.686;9.158;2022-12-10T09:06:13;2.20;99.90
20759;DHT22;10539;53.686;9.158;2022-12-10T09:08:39;2.20;99.90
20759;DHT22;10539;53.686;9.158;2022-12-10T09:11:11;2.20;99.90
20759;DHT22;10539;53.686;9.158;2022-12-10T09:13:38;2.20;99.90
20759;DHT22;10539;53.686;9.158;2022-12-10T09:16:05;2.20;99.90
20759;DHT22;10539;53.686;9.158;2022-12-10T09:18:30;2.10;99.90
20759;DHT22;10539;53.686;9.158;2022-12-10T09:20:56;2.10;99.90
20759;DHT22;10539;53.686;9.158;2022-12-10T09:23:22;2.10;99.90
20759;DHT22;10539;53.686;9.158;2022-12-10T09:25:49;2.10;99.90
20759;DHT22;10539;53.686;9.158;2022-12-10T09:28:15;2.10;99.90
20759;DHT22;10539;53.686;9.158;2022-12-10T09:30:41;2.00;99.90
20759;DHT22;10539;53.686;9.158;2022-12-10T09:33:07;2.00;99.90
20759;DHT22;10539;53.686;9.158;2022-12-10T09:35:32;2.00;99.90
20759;DHT22;10539;53.686;9.158;2022-12-10T09:37:58;2.10;99.90
20759;DHT22;10539;53.686;9.158;2022-12-10T09:40:57;2.10;99.90
20759;DHT22;10539;53.686;9.158;2022-12-10T09:51:27;2.40;99.90
20759;DHT22;10539;53.686;9.158;2022-12-10T09:53:56;2.40;99.90
20759;DHT22;10539;53.686;9.158;2022-12-10T09:56:32;2.30;99.90
20759;DHT22;10539;53.686;9.158;2022-12-10T09:59:19;2.30;99.90
20759;DHT22;10539;53.686;9.158;2022-12-10T10:01:48;2.40;99.90
20759;DHT22;10539;53.686;9.158;2022-12-10T10:04:15;2.40;99.90
20759;DHT22;10539;53.686;9.158;2022-12-10T10:06:41;2.40;99.90
20759;DHT22;10539;53.686;9.158;2022-12-10T10:09:14;2.40;99.90
20759;DHT22;10539;53.686;9.158;2022-12-10T10:11:41;2.50;99.90
20759;DHT22;10539;53.686;9.158;2022-12-10T10:14:15;2.50;99.90
20759;DHT22;10539;53.686;9.158;2022-12-10T10:17:02;2.40;99.90
20759;DHT22;10539;53.686;9.158;2022-12-10T10:19:31;2.30;99.90
20759;DHT22;10539;53.686;9.158;2022-12-10T10:22:03;2.30;99.90
20759;DHT22;10539;53.686;9.158;2022-12-10T10:24:35;2.30;99.90
20759;DHT22;10539;53.686;9.158;2022-12-10T10:27:24;2.30;99.90
20759;DHT22;10539;53.686;9.158;2022-12-10T10:29:54;2.30;99.90
20759;DHT22;10539;53.686;9.158;2022-12-10T10:32:23;2.20;99.90
20759;DHT22;10539;53.686;9.158;2022-12-10T10:34:54;2.20;99.90
20759;DHT22;10539;53.686;9.158;2022-12-10T10:39:55;2.30;99.90
20759;DHT22;10539;53.686;9.158;2022-12-10T10:42:42;2.30;99.90
20759;DHT22;10539;53.686;9.158;2022-12-10T10:45:35;2.30;99.90
20759;DHT22;10539;53.686;9.158;2022-12-10T10:50:32;2.40;99.90
20759;DHT22;10539;53.686;9.158;2022-12-10T10:53:01;2.40;99.90
20759;DHT22;10539;53.686;9.158;2022-12-10T10:55:32;2.40;99.90
20759;DHT22;10539;53.686;9.158;2022-12-10T10:58:01;2.40;99.90
20759;DHT22;10539;53.686;9.158;2022-12-10T11:00:27;2.40;99.90
20759;DHT22;10539;53.686;9.158;2022-12-10T11:02:53;2.30;99.90
20759;DHT22;10539;53.686;9.158;2022-12-10T11:05:26;2.30;99.90
20759;DHT22;10539;53.686;9.158;2022-12-10T11:08:01;2.30;99.90
20759;DHT22;10539;53.686;9.158;2022-12-10T11:10:27;2.40;99.90
20759;DHT22;10539;53.686;9.158;2022-12-10T11:13:38;2.40;99.90
20759;DHT22;10539;53.686;9.158;2022-12-10T11:15:45;2.40;99.90
20759;DHT22;10539;53.686;9.158;2022-12-10T11:18:33;2.40;99.90
20759;DHT22;10539;53.686;9.158;2022-12-10T11:23:45;2.50;99.90
20759;DHT22;10539;53.686;9.158;2022-12-10T11:26:34;2.40;99.90
20759;DHT22;10539;53.686;9.158;2022-12-10T11:32:15;2.40;99.90
20759;DHT22;10539;53.686;9.158;2022-12-10T11:35:37;2.40;99.90
20759;DHT22;10539;53.686;9.158;2022-12-10T11:37:58;2.40;99.90
20759;DHT22;10539;53.686;9.158;2022-12-10T11:40:33;2.40;99.90
20759;DHT22;10539;53.686;9.158;2022-12-10T11:43:29;2.50;99.90
20759;DHT22;10539;53.686;9.158;2022-12-10T12:05:32;2.70;99.90
20759;DHT22;10539;53.686;9.158;2022-12-10T12:11:18;2.70;99.90
20759;DHT22;10539;53.686;9.158;2022-12-10T12:13:58;2.70;99.90
20759;DHT22;10539;53.686;9.158;2022-12-10T12:19:04;2.80;99.90
20759;DHT22;10539;53.686;9.158;2022-12-10T12:21:31;2.80;99.90
20759;DHT22;10539;53.686;9.158;2022-12-10T12:24:14;2.80;99.90
20759;DHT22;10539;53.686;9.158;2022-12-10T12:29:34;2.60;99.90
20759;DHT22;10539;53.686;9.158;2022-12-10T12:32:11;2.60;99.90
20759;DHT22;10539;53.686;9.158;2022-12-10T12:34:59;2.60;99.90
20759;DHT22;10539;53.686;9.158;2022-12-10T12:37:53;2.60;99.90
20759;DHT22;10539;53.686;9.158;2022-12-10T12:43:31;2.60;99.90
20759;DHT22;10539;53.686;9.158;2022-12-10T12:45:59;2.70;99.90
20759;DHT22;10539;53.686;9.158;2022-12-10T12:51:14;2.70;99.90
20759;DHT22;10539;53.686;9.158;2022-12-10T12:53:41;2.70;99.90
20759;DHT22;10539;53.686;9.158;2022-12-10T13:03:58;2.60;99.90
20759;DHT22;10539;53.686;9.158;2022-12-10T13:06:30;2.60;99.90
20759;DHT22;10539;53.686;9.158;2022-12-10T13:12:16;2.60;99.90
20759;DHT22;10539;53.686;9.158;2022-12-10T13:14:35;2.50;99.90
20759;DHT22;10539;53.686;9.158;2022-12-10T13:19:40;2.40;99.90
20759;DHT22;10539;53.686;9.158;2022-12-10T13:22:10;2.40;99.90
20759;DHT22;10539;53.686;9.158;2022-12-10T13:27:18;2.50;99.90
20759;DHT22;10539;53.686;9.158;2022-12-10T13:29:59;2.50;99.90
20759;DHT22;10539;53.686;9.158;2022-12-10T13:43:35;2.50;99.90
20759;DHT22;10539;53.686;9.158;2022-12-10T13:48:56;2.40;99.90
20759;DHT22;10539;53.686;9.158;2022-12-10T13:56:31;2.40;99.90
20759;DHT22;10539;53.686;9.158;2022-12-10T13:59:20;2.40;99.90
20759;DHT22;10539;53.686;9.158;2022-12-10T14:04:24;2.40;99.90
20759;DHT22;10539;53.686;9.158;2022-12-10T14:06:55;2.50;99.90
20759;DHT22;10539;53.686;9.158;2022-12-10T14:09:42;2.40;99.90
20759;DHT22;10539;53.686;9.158;2022-12-10T14:12:14;2.40;99.90
20759;DHT22;10539;53.686;9.158;2022-12-10T14:14:48;2.40;99.90
20759;DHT22;10539;53.686;9.158;2022-12-10T14:17:20;2.40;99.90
20759;DHT22;10539;53.686;9.158;2022-12-10T14:19:49;2.40;99.90
20759;DHT22;10539;53.686;9.158;2022-12-10T14:22:18;2.40;99.90
20759;DHT22;10539;53.686;9.158;2022-12-10T14:24:47;2.40;99.90
20759;DHT22;10539;53.686;9.158;2022-12-10T14:27:19;2.40;99.90
20759;DHT22;10539;53.686;9.158;2022-12-10T14:29:50;2.40;99.90
20759;DHT22;10539;53.686;9.158;2022-12-10T14:32:20;2.50;99.90
20759;DHT22;10539;53.686;9.158;2022-12-10T14:34:57;2.50;99.90
20759;DHT22;10539;53.686;9.158;2022-12-10T14:37:26;2.50;99.90
20759;DHT22;10539;53.686;9.158;2022-12-10T14:39:52;2.50;99.90
20759;DHT22;10539;53.686;9.158;2022-12-10T14:42:18;2.50;99.90
20759;DHT22;10539;53.686;9.158;2022-12-10T14:44:45;2.60;99.90
20759;DHT22;10539;53.686;9.158;2022-12-10T14:47:20;2.60;99.90
20759;DHT22;10539;53.686;9.158;2022-12-10T14:49:48;2.60;99.90
20759;DHT22;10539;53.686;9.158;2022-12-10T14:52:18;2.60;99.90
20759;DHT22;10539;53.686;9.158;2022-12-10T14:54:45;2.60;99.90
20759;DHT22;10539;53.686;9.158;2022-12-10T15:00:06;2.50;99.90
20759;DHT22;10539;53.686;9.158;2022-12-10T15:02:37;2.50;99.90
20759;DHT22;10539;53.686;9.158;2022-12-10T15:05:29;2.40;99.90
20759;DHT22;10539;53.686;9.158;2022-12-10T15:07:58;2.40;99.90
20759;DHT22;10539;53.686;9.158;2022-12-10T15:10:49;2.30;99.90
20759;DHT22;10539;53.686;9.158;2022-12-10T15:13:38;2.40;99.90
20759;DHT22;10539;53.686;9.158;2022-12-10T15:16:05;2.40;99.90
20759;DHT22;10539;53.686;9.158;2022-12-10T15:18:38;2.40;99.90
20759;DHT22;10539;53.686;9.158;2022-12-10T15:21:14;2.40;99.90
20759;DHT22;10539;53.686;9.158;2022-12-10T15:23:42;2.40;99.90
20759;DHT22;10539;53.686;9.158;2022-12-10T15:26:19;2.40;99.90
20759;DHT22;10539;53.686;9.158;2022-12-10T15:28:46;2.40;99.90
20759;DHT22;10539;53.686;9.158;2022-12-10T15:33:50;2.40;99.90
20759;DHT22;10539;53.686;9.158;2022-12-10T15:39:05;2.40;99.90
20759;DHT22;10539;53.686;9.158;2022-12-10T15:44:38;2.30;99.90
20759;DHT22;10539;53.686;9.158;2022-12-10T15:47:22;2.30;99.90
20759;DHT22;10539;53.686;9.158;2022-12-10T15:49:50;2.30;99.90
20759;DHT22;10539;53.686;9.158;2022-12-10T15:52:24;2.30;99.90
20759;DHT22;10539;53.686;9.158;2022-12-10T15:54:53;2.30;99.90
20759;DHT22;10539;53.686;9.158;2022-12-10T15:57:22;2.40;99.90
20759;DHT22;10539;53.686;9.158;2022-12-10T15:59:50;2.30;99.90
20759;DHT22;10539;53.686;9.158;2022-12-10T16:07:40;2.30;99.90
20759;DHT22;10539;53.686;9.158;2022-12-10T16:10:09;2.30;99.90
20759;DHT22;10539;53.686;9.158;2022-12-10T16:12:36;2.30;99.90
20759;DHT22;10539;53.686;9.158;2022-12-10T16:15:03;2.20;99.90
20759;DHT22;10539;53.686;9.158;2022-12-10T16:17:29;2.20;99.90
20759;DHT22;10539;53.686;9.158;2022-12-10T16:20:05;2.20;99.90
20759;DHT22;10539;53.686;9.158;2022-12-10T16:22:41;2.20;99.90
20759;DHT22;10539;53.686;9.158;2022-12-10T16:25:07;2.30;99.90
20759;DHT22;10539;53.686;9.158;2022-12-10T16:27:32;2.30;99.90
20759;DHT22;10539;53.686;9.158;2022-12-10T16:30:11;2.40;99.90
20759;DHT22;10539;53.686;9.158;2022-12-10T16:32:37;2.40;99.90
20759;DHT22;10539;53.686;9.158;2022-12-10T16:35:03;2.40;99.90
20759;DHT22;10539;53.686;9.158;2022-12-10T16:37:29;2.40;99.90
20759;DHT22;10539;53.686;9.158;2022-12-10T16:39:55;2.40;99.90
20759;DHT22;10539;53.686;9.158;2022-12-10T16:42:20;2.40;99.90
20759;DHT22;10539;53.686;9.158;2022-12-10T16:44:46;2.40;99.90
20759;DHT22;10539;53.686;9.158;2022-12-10T16:47:12;2.30;99.90
20759;DHT22;10539;53.686;9.158;2022-12-10T16:49:38;2.30;99.90
20759;DHT22;10539;53.686;9.158;2022-12-10T16:52:04;2.20;99.90
20759;DHT22;10539;53.686;9.158;2022-12-10T16:54:30;2.20;99.90
20759;DHT22;10539;53.686;9.158;2022-12-10T16:56:56;2.10;99.90
20759;DHT22;10539;53.686;9.158;2022-12-10T16:59:22;2.10;99.90
20759;DHT22;10539;53.686;9.158;2022-12-10T17:01:47;2.10;99.90
20759;DHT22;10539;53.686;9.158;2022-12-10T17:04:16;2.10;99.90
20759;DHT22;10539;53.686;9.158;2022-12-10T17:06:42;2.10;99.90
20759;DHT22;10539;53.686;9.158;2022-12-10T17:09:07;2.20;99.90
20759;DHT22;10539;53.686;9.158;2022-12-10T17:11:41;2.20;99.90
20759;DHT22;10539;53.686;9.158;2022-12-10T17:14:28;2.20;99.90
20759;DHT22;10539;53.686;9.158;2022-12-10T17:16:56;2.30;99.90
20759;DHT22;10539;53.686;9.158;2022-12-10T17:19:24;2.20;99.90
20759;DHT22;10539;53.686;9.158;2022-12-10T17:21:50;2.20;99.90
20759;DHT22;10539;53.686;9.158;2022-12-10T17:24:16;2.10;99.90
20759;DHT22;10539;53.686;9.158;2022-12-10T17:26:44;2.00;99.90
20759;DHT22;10539;53.686;9.158;2022-12-10T17:29:27;2.00;99.90
20759;DHT22;10539;53.686;9.158;2022-12-10T17:31:53;2.10;99.90
20759;DHT22;10539;53.686;9.158;2022-12-10T17:34:19;2.10;99.90
20759;DHT22;10539;53.686;9.158;2022-12-10T17:36:48;2.00;99.90
20759;DHT22;10539;53.686;9.158;2022-12-10T17:39:16;2.00;99.90
20759;DHT22;10539;53.686;9.158;2022-12-10T17:41:42;1.90;99.90
20759;DHT22;10539;53.686;9.158;2022-12-10T17:44:08;2.00;99.90
20759;DHT22;10539;53.686;9.158;2022-12-10T17:46:34;1.90;99.90
20759;DHT22;10539;53.686;9.158;2022-12-10T17:49:00;1.90;99.90
20759;DHT22;10539;53.686;9.158;2022-12-10T17:51:27;1.90;99.90
20759;DHT22;10539;53.686;9.158;2022-12-10T17:53:54;1.90;99.90
20759;DHT22;10539;53.686;9.158;2022-12-10T17:56:22;1.90;99.90
20759;DHT22;10539;53.686;9.158;2022-12-10T17:58:50;2.00;99.90
20759;DHT22;10539;53.686;9.158;2022-12-10T18:01:20;1.90;99.90
20759;DHT22;10539;53.686;9.158;2022-12-10T18:03:46;1.90;99.90